Flight Track Log - Related Links

Times and Time Zones

All times are in EDT time to prevent confusion due to time zone crossing. See the SWA1718 flight status page for this flight to view local times or setup timezone preferences in your user account.

Time Position Orientation Groundspeed Altitude Reporting Facility
EDT Latitude Longitude Course Direction KTS MPH feet Rate Location/Type
Thu 08:46:57 PM 39.8833 -104.5833 72° East 186 214 7,000  Level Denver TRACON
Thu 08:47:57 PM 39.8833 -104.4833 90° East 260 299 9,500 1,895 Climbing Denver TRACON
Thu 08:48:51 PM 39.8667 -104.3833 102° East 325 374 10,600 1,690 Climbing Denver TRACON
Thu 08:49:08 PM 39.8733 -104.3525 74° East 325 374 11,500 3,646 Climbing Denver Center
Thu 08:50:10 PM 39.8736 -104.2131 90° East 355 409 15,400 3,629 Climbing Denver Center
Thu 08:51:12 PM 39.8725 -104.0800 91° East 369 425 19,000 3,194 Climbing Denver Center
Thu 08:52:00 PM 39.8831 -103.7344 72° East  Level FlightAware Approximate
Thu 08:52:14 PM 39.8708 -103.9336 91° East 383 441 22,000  Level Denver Center
Thu 08:53:16 PM 39.8789 -103.7861 86° East 386 444 24,200 2,439 Climbing Denver Center
Thu 08:54:17 PM 39.8931 -103.6478 82° East 382 440 27,000 2,341 Climbing Denver Center
Thu 08:55:19 PM 39.9069 -103.5306 81° East 389 448 29,000 1,694 Climbing Denver Center
Thu 08:56:21 PM 39.9256 -103.3594 82° East 405 466 30,500 1,210 Climbing Denver Center
Thu 08:57:23 PM 39.9431 -103.2033 82° East 430 495 31,500 1,268 Climbing Denver Center
Thu 08:58:24 PM 39.9617 -103.0428 81° East 443 510 33,100 1,366 Climbing Denver Center
Thu 08:59:26 PM 39.9792 -102.8775 82° East 456 525 34,300 1,016 Climbing Denver Center
Thu 09:00:28 PM 39.9969 -102.7106 82° East 460 529 35,200 1,015 Climbing Denver Center
Thu 09:01:42 PM 40.0169 -102.5164 82° East 469 540 36,600 1,103 Climbing Denver Center
Thu 09:02:44 PM 40.0372 -102.3269 82° East 472 543 37,700 927 Climbing Denver Center
Thu 09:03:45 PM 40.0583 -102.1336 82° East 484 557 38,500 634 Climbing Denver Center
Thu 09:04:47 PM 40.0747 -101.9672 83° East 483 556 39,000 242 Climbing Denver Center
Thu 09:05:49 PM 40.0933 -101.7731 83° East 484 557 39,000  Level Denver Center
Thu 09:07:02 PM 40.1103 -101.6061 82° East 483 556 39,000  Level Denver Center
Thu 09:08:05 PM 40.1314 -101.3831 83° East 484 557 39,000  Level Denver Center
Thu 09:09:06 PM 40.1469 -101.2161 83° East 485 558 39,000  Level Denver Center
Thu 09:10:08 PM 40.1653 -101.0244 83° East 480 552 39,000  Level Denver Center
Thu 09:11:10 PM 40.1800 -100.8578 83° East 483 556 39,000  Level Denver Center
Thu 09:12:12 PM 40.1972 -100.6650 83° East 482 555 39,000  Level Denver Center
Thu 09:13:13 PM 40.2058 -100.4969 86° East 487 560 39,000  Level Denver Center
Thu 09:14:15 PM 40.2086 -100.3000 89° East 488 562 39,000  Level Denver Center
Thu 09:15:17 PM 40.2106 -100.1283 89° East 494 568 39,000  Level Denver Center
Thu 09:16:19 PM 40.2231 -99.9314 85° East 492 566 39,000  Level Denver Center
Thu 09:17:20 PM 40.2442 -99.7803 80° East 499 574 39,000  Level Denver Center
Thu 09:18:22 PM 40.2722 -99.5650 80° East 501 577 39,000  Level Denver Center
Thu 09:19:24 PM 40.2956 -99.3883 80° East 496 571 39,000  Level Denver Center
Thu 09:20:25 PM 40.3197 -99.2122 80° East 493 567 39,000  Level Denver Center
Thu 09:21:27 PM 40.3425 -99.0342 80° East 495 570 39,000  Level Denver Center
Thu 09:22:29 PM 40.3653 -98.8561 80° East 497 572 39,000  Level Denver Center
Thu 09:23:31 PM 40.3869 -98.6781 81° East 498 573 39,000  Level Denver Center
Thu 09:24:32 PM 40.4142 -98.4639 80° East 499 574 39,000  Level Minneapolis Center
Thu 09:25:34 PM 40.4361 -98.2842 81° East 501 577 39,000  Level Minneapolis Center
Thu 09:26:36 PM 40.4581 -98.1042 81° East 500 575 39,000  Level Minneapolis Center
Thu 09:27:38 PM 40.4803 -97.9236 81° East 503 579 39,000  Level Minneapolis Center
Thu 09:28:40 PM 40.5006 -97.7428 82° East 502 578 39,000  Level Minneapolis Center
Thu 09:29:41 PM 40.5206 -97.5611 82° East 503 579 39,000  Level Minneapolis Center
Thu 09:30:43 PM 40.5431 -97.3789 81° East 505 581 39,000  Level Minneapolis Center
Thu 09:31:45 PM 40.5653 -97.1836 81° East 506 582 39,000  Level Minneapolis Center
Thu 09:32:47 PM 40.5847 -97.0000 82° East 509 586 39,000  Level Minneapolis Center
Thu 09:33:49 PM 40.6106 -96.7783 81° East 512 589 39,000  Level Minneapolis Center
Thu 09:34:51 PM 40.6297 -96.5906 82° East 518 596 39,000  Level Minneapolis Center
Thu 09:35:53 PM 40.6483 -96.4047 82° East 516 594 39,000  Level Minneapolis Center
Thu 09:36:55 PM 40.6689 -96.2192 82° East 517 595 39,000  Level Minneapolis Center
Thu 09:37:57 PM 40.6875 -96.0314 82° East 519 597 39,000  Level Minneapolis Center
Thu 09:38:59 PM 40.7061 -95.8444 82° East 519 597 39,000  Level Minneapolis Center
Thu 09:40:00 PM 40.7297 -95.6225 82° East 516 594 39,000  Level Minneapolis Center
Thu 09:41:02 PM 40.7475 -95.4364 83° East 517 595 39,000  Level Minneapolis Center
Thu 09:42:04 PM 40.7658 -95.2486 83° East 517 595 39,000  Level Minneapolis Center
Thu 09:43:06 PM 40.7831 -95.0639 83° East 513 590 39,000  Level Minneapolis Center
Thu 09:44:08 PM 40.7989 -94.8792 83° East 511 588 39,000  Level Minneapolis Center
Thu 09:45:10 PM 40.8172 -94.6947 82° East 510 587 39,000  Level Minneapolis Center
Thu 09:46:12 PM 40.8331 -94.4772 84° East 510 587 39,000  Level Minneapolis Center
Thu 09:47:13 PM 40.8469 -94.2933 84° East 509 586 39,000  Level Minneapolis Center
Thu 09:48:15 PM 40.8647 -94.1064 83° East 512 589 39,000  Level Minneapolis Center
Thu 09:49:17 PM 40.8803 -93.9203 84° East 514 592 39,000  Level Minneapolis Center
Thu 09:50:19 PM 40.8958 -93.7342 84° East 514 592 39,000  Level Minneapolis Center
Thu 09:51:21 PM 40.9114 -93.5481 84° East 512 589 39,000  Level Minneapolis Center
Thu 09:52:23 PM 40.9297 -93.3272 84° East 508 585 39,000  Level Minneapolis Center
Thu 09:53:25 PM 40.9442 -93.1411 84° East 509 586 39,000 -484 Level Minneapolis Center
Thu 09:54:27 PM 40.9592 -92.9539 84° East 511 588 38,000 -976 Descending Minneapolis Center
Thu 09:55:28 PM 40.9728 -92.7636 85° East 517 595 37,000 -927 Descending Minneapolis Center
Thu 09:56:30 PM 40.9869 -92.5750 84° East 517 595 36,100 -919 Descending Minneapolis Center
Thu 09:57:32 PM 40.9997 -92.3853 85° East 517 595 35,100 -1,016 Descending Minneapolis Center
Thu 09:58:34 PM 41.0153 -92.1586 85° East 517 595 34,000 -1,016 Descending Minneapolis Center
Thu 09:59:36 PM 41.0269 -91.9717 85° East 513 590 33,000 -976 Descending Minneapolis Center
Thu 10:00:37 PM 41.0400 -91.7844 85° East 513 590 32,000 -889 Descending Minneapolis Center
Thu 10:01:51 PM 41.0536 -91.5597 85° East 500 575 31,000 -441 Descending Chicago Center
Thu 10:02:53 PM 41.0644 -91.3789 85° East 494 568 31,000 -242 Level Chicago Center
Thu 10:03:55 PM 41.0756 -91.1997 85° East 489 563 30,500 -1,317 Descending Chicago Center
Thu 10:04:56 PM 41.0869 -91.0233 85° East 481 554 28,300 -2,195 Descending Chicago Center
Thu 10:05:58 PM 41.0958 -90.8544 86° East 464 534 26,000 -2,049 Descending Chicago Center
Thu 10:06:59 PM 41.1053 -90.6911 86° East 449 517 24,100 -1,512 Descending Chicago Center
Thu 10:08:01 PM 41.1158 -90.4939 86° East 447 514 22,900 -1,122 Descending Chicago Center
Thu 10:09:02 PM 41.1239 -90.3275 86° East 449 517 21,800 -1,854 Descending Chicago Center
Thu 10:10:04 PM 41.1328 -90.1608 86° East 450 518 19,100 -1,951 Descending Chicago Center
Thu 10:11:05 PM 41.1406 -89.9981 86° East 442 509 17,800 -1,122 Descending Chicago Center
Thu 10:12:07 PM 41.1522 -89.8367 84° East 440 506 16,800 -976 Descending Chicago Center
Thu 10:13:08 PM 41.1933 -89.6772 71° East 454 522 15,800 -829 Descending Chicago Center
Thu 10:14:10 PM 41.2347 -89.5242 70° East 443 510 15,100 -629 Descending Chicago Center
Thu 10:15:12 PM 41.2728 -89.3789 71° East 421 484 14,500 -780 Descending Chicago Center
Thu 10:16:13 PM 41.3089 -89.2386 71° East 404 465 13,500 -1,024 Descending Chicago Center
Thu 10:17:15 PM 41.3414 -89.1089 72° East 369 425 12,400 -1,024 Descending Chicago Center
Thu 10:18:16 PM 41.3736 -88.9875 70° East 355 409 11,400 -1,220 Descending Chicago Center
Thu 10:19:18 PM 41.4100 -88.8481 71° East 339 390 9,900 -1,463 Descending Chicago Center
Thu 10:20:19 PM 41.4397 -88.7353 71° East 327 376 8,400 -1,366 Descending Chicago Center
Thu 10:21:21 PM 41.4672 -88.6250 72° East 320 368 7,100 -1,171 Descending Chicago Center
Thu 10:22:22 PM 41.4958 -88.5153 71° East 317 365 6,000 -927 Descending Chicago Center
Thu 10:23:24 PM 41.5164 -88.4047 76° East 311 358 5,200 -488 Descending Chicago Center
Thu 10:24:25 PM 41.5264 -88.2942 83° East 305 351 5,000 -98 Descending Chicago Center
Thu 10:25:27 PM 41.5369 -88.1847 83° East 300 345 5,000  Level Chicago Center
Thu 10:26:28 PM 41.5489 -88.0742 82° East 298 343 5,000  Level Chicago Center
Thu 10:27:30 PM 41.5622 -87.9633 81° East 298 343 5,000 -293 Level Chicago Center
Thu 10:28:31 PM 41.5783 -87.8531 79° East 300 345 4,400 -976 Descending Chicago Center
Thu 10:29:33 PM 41.5908 -87.7228 83° East 298 343 3,000 -683 Descending Chicago Center
Thu 10:30:34 PM 41.6203 -87.6378 65° Northeast 270 311 3,000 -244 Level Chicago Center
Thu 10:31:36 PM 41.6636 -87.5853 42° Northeast 242 278 2,500 -244 Descending Chicago Center
Thu 10:32:37 PM 41.6928 -87.6217 317° Northwest 177 204 2,500 -49 Level Chicago Center
Thu 10:33:38 PM 41.7186 -87.6603 312° West 154 177 2,400 -390 Descending Chicago Center
Thu 10:34:40 PM 41.7439 -87.6953 314° West 142 163 1,700 -732 Descending Chicago Center
Thu 10:35:41 PM 41.7686 -87.7300 314° West 135 155 900 -787 Descending Chicago Center

Login

Don't have an account? Register now (free) for customized features, flight alerts, and more!